createdAt,value
2023-05-08T09:25:46.477Z,93.96
2023-05-08T09:28:16.347Z,93.35
2023-05-08T09:29:20.782Z,92.56
2023-05-08T09:30:22.176Z,92.89
2023-05-08T09:31:34.911Z,92.29
2023-05-08T09:32:38.441Z,91.58
2023-05-08T09:33:44.409Z,91.22
2023-05-08T09:34:52.443Z,92.44
2023-05-08T09:35:56.812Z,92.35
2023-05-08T09:37:07.421Z,92.23
2023-05-08T09:38:08.767Z,91.70
2023-05-08T09:39:14.119Z,90.86
2023-05-08T09:40:21.407Z,90.75
2023-05-08T09:41:24.071Z,90.69
2023-05-08T09:42:37.753Z,90.51
2023-05-08T09:43:39.455Z,89.55
2023-05-08T09:44:54.021Z,88.34
2023-05-08T09:45:55.552Z,88.38
2023-05-08T09:47:11.234Z,88.11
2023-05-08T09:48:12.610Z,88.67
2023-05-08T09:49:18.126Z,88.09
2023-05-08T09:50:19.611Z,87.86
2023-05-08T09:51:21.687Z,88.09
2023-05-08T09:52:24.045Z,88.22
2023-05-08T09:53:32.282Z,87.40
2023-05-08T09:54:34.793Z,86.96
2023-05-08T09:55:48.671Z,87.40
2023-05-08T09:56:50.939Z,86.47
2023-05-08T09:57:59.879Z,87.40
2023-05-08T09:59:03.586Z,87.29
2023-05-08T10:00:08.920Z,87.59
2023-05-08T10:01:31.500Z,87.13
2023-05-08T10:02:33.204Z,87.31
2023-05-08T10:03:48.471Z,87.50
2023-05-08T10:04:49.929Z,87.81
2023-05-08T10:05:51.551Z,87.72
2023-05-08T10:06:58.501Z,87.68
2023-05-08T10:08:17.843Z,87.32
2023-05-08T10:09:19.423Z,87.10
2023-05-08T10:10:28.527Z,87.13
2023-05-08T10:11:29.908Z,86.83
2023-05-08T10:12:32.206Z,86.46
2023-05-08T10:13:33.913Z,85.92
2023-05-08T10:14:35.344Z,84.81
2023-05-08T10:15:38.273Z,84.51
2023-05-08T10:16:44.016Z,84.03
2023-05-08T10:17:55.962Z,84.03
2023-05-08T10:19:02.344Z,84.82
2023-05-08T10:20:07.071Z,84.05
2023-05-08T10:21:09.046Z,83.28
2023-05-08T10:22:12.578Z,83.33
2023-05-08T10:23:19.016Z,83.13
2023-05-08T10:24:29.260Z,83.64
2023-05-08T10:25:34.002Z,84.09
2023-05-08T10:26:38.089Z,85.09
2023-05-08T10:27:55.196Z,84.51
2023-05-08T10:28:57.785Z,85.71
2023-05-08T10:30:04.185Z,85.88
2023-05-08T10:31:07.965Z,86.42
2023-05-08T10:32:10.592Z,86.17
2023-05-08T10:33:15.301Z,85.73
2023-05-08T10:34:20.725Z,87.51
2023-05-08T10:35:22.806Z,88.25
2023-05-08T11:27:37.844Z,93.37
2023-05-08T11:30:22.653Z,92.97
2023-05-08T11:31:24.371Z,92.63
2023-05-08T11:33:55.533Z,92.53
2023-05-08T11:34:57.353Z,92.92
2023-05-08T11:36:20.549Z,92.29
2023-05-08T11:39:07.922Z,91.85
2023-05-08T11:40:47.372Z,92.39
2023-05-08T11:43:24.265Z,92.25
2023-05-08T11:44:28.161Z,92.44
2023-05-08T11:45:30.812Z,91.96
2023-05-08T11:46:52.192Z,92.01
2023-05-08T11:48:00.971Z,92.21
2023-05-08T11:49:02.552Z,91.10
2023-05-08T11:50:04.727Z,90.81
2023-05-08T11:51:06.793Z,90.96
2023-05-08T11:52:08.238Z,91.49
2023-05-08T11:53:09.709Z,91.09
2023-05-08T11:54:20.971Z,91.16
2023-05-08T11:55:22.485Z,91.37
2023-05-08T11:56:24.636Z,91.01
2023-05-08T11:57:27.106Z,90.78
2023-05-08T11:58:28.663Z,90.00
2023-05-08T11:59:35.627Z,90.08
2023-05-08T12:00:41.132Z,88.92
2023-05-08T12:01:46.295Z,89.55
2023-05-08T12:02:50.098Z,90.51
2023-05-08T12:04:00.793Z,89.28
2023-05-08T12:05:03.132Z,87.15
2023-05-08T12:06:04.850Z,86.13
2023-05-08T12:07:06.287Z,85.54
2023-05-08T12:08:12.081Z,86.23
2023-05-08T12:09:18.350Z,84.88
2023-05-08T12:10:20.082Z,86.25
2023-05-08T12:11:27.741Z,85.45
2023-05-08T12:12:42.936Z,83.71
2023-05-08T12:13:51.562Z,84.77
2023-05-08T12:14:53.090Z,83.59
2023-05-08T12:15:59.072Z,78.70
2023-05-08T12:17:02.493Z,78.13
2023-05-08T12:18:04.221Z,79.47
2023-05-08T12:19:13.588Z,81.26
2023-05-08T12:20:19.340Z,81.35
2023-05-08T12:21:21.343Z,82.20
2023-05-08T12:22:22.764Z,82.15
2023-05-08T12:23:30.852Z,81.92
2023-05-08T12:24:32.379Z,80.80
2023-05-08T12:25:34.052Z,78.52
2023-05-08T12:26:37.583Z,76.74
2023-05-08T12:27:39.582Z,78.50
2023-05-08T12:28:44.500Z,76.20
2023-05-08T12:29:46.564Z,77.85
2023-05-08T12:30:49.620Z,79.72
2023-05-08T12:31:51.593Z,79.04
2023-05-08T12:32:53.447Z,83.69
2023-05-08T12:33:55.934Z,83.21
2023-05-08T12:34:57.637Z,83.74
2023-05-08T12:35:59.223Z,85.33
2023-05-08T12:37:04.634Z,81.27
2023-05-08T12:38:07.747Z,78.65
2023-05-08T12:39:13.852Z,82.61
2023-05-08T12:40:26.875Z,82.99
2023-05-08T12:41:28.452Z,82.44
2023-05-08T12:42:48.282Z,81.18
2023-05-08T12:43:49.758Z,82.13
2023-05-08T12:44:52.550Z,80.15
2023-05-08T12:45:54.168Z,80.46
2023-05-08T12:46:56.879Z,81.78
2023-05-08T12:48:03.647Z,78.09
2023-05-08T12:49:07.822Z,76.88
2023-05-08T12:50:10.170Z,80.86
2023-05-08T12:51:12.216Z,82.13
2023-05-08T12:52:13.890Z,84.74
2023-05-08T12:53:17.468Z,87.15
2023-05-08T12:54:18.943Z,87.16
2023-05-08T12:55:28.649Z,86.57
2023-05-08T12:56:30.234Z,86.37
2023-05-08T12:57:31.613Z,86.55
2023-05-08T12:58:34.473Z,86.11
2023-05-08T12:59:36.020Z,86.09
2023-05-08T13:00:37.373Z,85.46
2023-05-08T13:01:38.883Z,86.03
2023-05-08T13:02:49.022Z,85.29
2023-05-08T13:04:01.711Z,84.60
2023-05-08T13:05:05.800Z,84.16
2023-05-08T13:06:18.718Z,85.01
2023-05-08T13:07:20.107Z,84.49
2023-05-08T13:08:38.713Z,83.55
2023-05-08T13:09:55.267Z,85.53
2023-05-08T13:10:56.664Z,86.92
2023-05-08T13:11:58.921Z,86.95
2023-05-08T13:13:00.349Z,86.06
2023-05-08T13:14:01.834Z,85.30
2023-05-08T13:15:04.774Z,85.93
2023-05-08T13:16:07.751Z,87.00
2023-05-08T13:17:09.313Z,85.55
2023-05-08T13:18:11.083Z,85.26
2023-05-08T13:19:12.539Z,84.56
2023-05-08T13:20:14.573Z,85.49
2023-05-08T13:21:16.196Z,85.35
2023-05-08T13:22:17.717Z,85.07
2023-05-08T13:23:19.401Z,85.35
2023-05-08T13:24:21.297Z,85.17
2023-05-08T13:25:22.661Z,86.20
2023-05-08T13:26:25.858Z,85.71
2023-05-08T13:27:27.385Z,84.79
2023-05-08T13:28:28.943Z,85.10
2023-05-08T13:29:30.701Z,83.80
2023-05-08T13:30:32.212Z,84.20
2023-05-08T13:31:34.165Z,85.26
2023-05-08T13:32:35.714Z,85.04
2023-05-08T13:33:38.281Z,83.99
2023-05-08T13:34:47.279Z,83.81
2023-05-08T13:35:50.931Z,83.60
2023-05-08T13:36:52.859Z,83.75
2023-05-08T13:37:55.465Z,83.13
2023-05-08T13:38:57.454Z,82.72
2023-05-08T13:39:58.766Z,82.26
2023-05-08T13:41:00.360Z,82.48
2023-05-08T13:42:01.772Z,81.26
2023-05-08T13:43:03.421Z,81.07
2023-05-08T13:44:04.924Z,81.28
2023-05-08T13:45:07.787Z,82.25
2023-05-08T13:46:09.292Z,82.69
2023-05-08T13:47:11.003Z,83.68
2023-05-08T13:48:12.610Z,84.78
2023-05-08T13:49:14.281Z,84.19
2023-05-08T13:50:18.494Z,84.56
2023-05-08T13:51:27.394Z,84.03
2023-05-08T13:52:30.282Z,83.80
2023-05-08T13:53:31.682Z,83.76
2023-05-08T13:54:33.151Z,84.09
2023-05-08T13:55:36.169Z,84.64
2023-05-08T13:56:37.538Z,84.52
2023-05-08T13:57:39.547Z,83.10
2023-05-08T13:58:41.313Z,83.99
2023-05-08T13:59:42.966Z,83.29
2023-05-08T14:00:45.476Z,84.35
2023-05-08T14:01:46.945Z,84.21
2023-05-08T14:02:50.005Z,84.41
2023-05-08T14:03:53.565Z,84.19
2023-05-08T14:04:55.175Z,84.39
2023-05-08T14:05:56.683Z,85.84
2023-05-08T14:06:58.482Z,86.14
2023-05-08T14:07:59.882Z,85.69
2023-05-08T14:09:01.334Z,85.46
2023-05-08T14:10:03.064Z,84.81
2023-05-08T14:11:04.458Z,84.59
2023-05-08T14:12:06.261Z,84.82
2023-05-08T14:13:07.797Z,84.97
2023-05-08T14:14:09.363Z,84.23
2023-05-08T14:15:12.093Z,84.93
2023-05-08T14:16:16.108Z,85.04
2023-05-08T17:23:48.240Z,98.85
2023-05-08T17:24:49.651Z,98.33
2023-05-08T17:25:58.208Z,97.63
2023-05-08T17:26:59.824Z,97.33
2023-05-08T17:28:01.997Z,96.95
2023-05-08T17:29:03.565Z,95.85
2023-05-08T17:30:06.619Z,95.96
2023-05-08T17:31:08.014Z,95.78
2023-05-08T17:32:09.538Z,94.53
2023-05-08T17:33:11.060Z,94.24
2023-05-08T17:36:20.410Z,93.77
